Time;durP1;ratioP1;P1;durP2;ratioP2;P2;SDS_P1;SDS_P2;PMS_P1;PMS_P2;Temp;Humidity;BMP_temperature;BMP_pressure;BME280_temperature;BME280_humidity;BME280_pressure;Samples;Min_cycle;Max_cycle;Signal;HPM_P1;HPM_P2
2023/04/04 00:01:12;;;;;;;3.70;1.80;;;;;;;1.48;55.22;103281.00;7391692;19;19991;-58
2023/04/04 00:03:38;;;;;;;4.93;1.90;;;;;;;1.46;55.19;103284.50;7390080;19;20109;-58
2023/04/04 00:06:04;;;;;;;5.95;1.80;;;;;;;1.26;55.29;103280.19;7391842;19;19999;-59
2023/04/04 00:08:29;;;;;;;5.78;1.67;;;;;;;1.43;55.20;103274.88;7392474;19;20109;-59
2023/04/04 00:11:01;;;;;;;6.93;1.95;;;;;;;1.51;54.96;103273.16;7391674;19;20070;-59
2023/04/04 00:13:27;;;;;;;4.72;1.55;;;;;;;1.53;54.78;103268.75;7391887;19;19999;-58
2023/04/04 00:15:53;;;;;;;5.97;1.98;;;;;;;1.33;55.15;103268.81;7391961;19;20026;-59
2023/04/04 00:18:19;;;;;;;6.43;1.92;;;;;;;1.28;55.36;103267.06;7391779;19;19995;-59
2023/04/04 00:20:45;;;;;;;5.00;1.83;;;;;;;1.34;55.39;103261.84;7389675;19;20022;-59
2023/04/04 00:23:10;;;;;;;7.68;1.90;;;;;;;1.46;54.83;103259.16;7391659;19;20046;-59
2023/04/04 00:25:36;;;;;;;7.70;2.10;;;;;;;1.52;55.09;103259.16;7391329;19;19994;-59
2023/04/04 00:28:02;;;;;;;4.93;1.88;;;;;;;1.52;55.01;103253.06;7392132;19;20748;-60
2023/04/04 00:30:29;;;;;;;4.38;1.95;;;;;;;1.29;55.38;103247.91;7391620;19;20006;-60
2023/04/04 00:32:55;;;;;;;4.75;1.92;;;;;;;1.30;55.25;103254.88;7391852;19;20007;-60
2023/04/04 00:35:21;;;;;;;7.25;2.03;;;;;;;1.29;55.74;103250.53;7391212;19;19998;-59
2023/04/04 00:37:47;;;;;;;7.10;2.05;;;;;;;1.32;55.64;103247.88;7390652;19;20005;-59
2023/04/04 00:40:13;;;;;;;7.57;2.17;;;;;;;0.85;57.64;103256.69;7391664;19;20032;-61
2023/04/04 00:42:39;;;;;;;6.63;2.20;;;;;;;0.57;58.51;103240.16;7391091;19;20002;-60
2023/04/04 00:45:07;;;;;;;6.63;2.10;;;;;;;0.72;58.30;103247.13;7390774;19;19995;-60
2023/04/04 00:47:33;;;;;;;7.55;2.55;;;;;;;0.40;59.14;103247.97;7391364;19;20439;-59
2023/04/04 00:49:59;;;;;;;5.88;2.00;;;;;;;0.41;59.34;103249.75;7391831;19;19990;-60
2023/04/04 00:52:25;;;;;;;5.25;1.88;;;;;;;0.15;60.86;103247.97;7390811;19;19998;-59
2023/04/04 00:54:54;;;;;;;5.13;1.90;;;;;;;0.07;61.29;103247.09;7390697;19;20092;-59
2023/04/04 00:57:20;;;;;;;5.93;2.30;;;;;;;0.05;61.47;103242.72;7390381;19;20077;-60
2023/04/04 00:59:46;;;;;;;7.35;2.08;;;;;;;0.16;61.03;103241.84;7391178;19;20001;-60
2023/04/04 01:02:11;;;;;;;7.57;2.38;;;;;;;0.02;61.64;103235.72;7388736;19;19991;-60
2023/04/04 01:04:37;;;;;;;7.93;2.05;;;;;;;-0.03;62.13;103242.69;7391585;19;20002;-60
2023/04/04 01:07:03;;;;;;;6.07;2.22;;;;;;;0.25;60.83;103240.13;7390220;19;20019;-60
2023/04/04 01:09:29;;;;;;;7.05;2.10;;;;;;;-0.00;61.48;103228.78;7391049;19;20003;-60
2023/04/04 01:11:55;;;;;;;6.03;2.47;;;;;;;-0.02;62.05;103231.38;7387407;19;20003;-60
2023/04/04 01:14:21;;;;;;;7.60;2.22;;;;;;;-0.16;62.57;103231.34;7390388;19;20025;-59
2023/04/04 01:16:50;;;;;;;7.07;2.30;;;;;;;-0.24;63.23;103232.22;7390996;19;20002;-60
2023/04/04 01:19:33;;;;;;;8.57;2.58;;;;;;;-0.27;63.42;103212.16;7391111;19;19998;-62
2023/04/04 01:22:00;;;;;;;8.65;2.30;;;;;;;-0.28;62.89;103220.88;7387773;19;20083;-60
2023/04/04 01:24:31;;;;;;;6.70;2.30;;;;;;;-0.31;63.21;103215.63;7389789;19;20478;-60
2023/04/04 01:26:57;;;;;;;5.53;2.30;;;;;;;-0.30;63.38;103218.25;7389208;19;19998;-60
2023/04/04 01:29:22;;;;;;;8.65;2.65;;;;;;;-0.01;62.31;103219.19;7390236;19;20082;-60
2023/04/04 01:31:59;;;;;;;7.70;2.47;;;;;;;0.06;62.03;103228.78;7387788;19;19994;-61
2023/04/04 01:34:43;;;;;;;5.88;2.10;;;;;;;-0.12;62.73;103227.88;7383930;19;20015;-70
2023/04/04 01:37:36;;;;;;;8.57;2.83;;;;;;;-0.12;62.95;103225.25;7389611;19;20077;-70
2023/04/04 01:40:17;;;;;;;8.50;2.38;;;;;;;-0.17;63.00;103224.41;7390198;19;20070;-70
2023/04/04 01:42:44;;;;;;;6.80;2.47;;;;;;;-0.22;62.95;103220.00;7387700;19;20366;-70
2023/04/04 01:45:10;;;;;;;8.60;2.70;;;;;;;-0.28;62.97;103220.88;7388024;19;20033;-71
2023/04/04 01:47:39;;;;;;;4.07;2.10;;;;;;;-0.34;63.39;103220.84;7390165;19;20074;-71
2023/04/04 01:50:07;;;;;;;5.65;2.05;;;;;;;-0.34;63.52;103211.25;7389817;19;20003;-71
2023/04/04 01:52:33;;;;;;;8.23;2.22;;;;;;;-0.42;63.53;103205.16;7390244;19;19999;-71
2023/04/04 01:54:59;;;;;;;6.57;2.22;;;;;;;-0.25;62.87;103210.41;7388186;19;19999;-71
2023/04/04 01:57:24;;;;;;;7.35;2.38;;;;;;;-0.11;62.45;103198.25;7389512;19;20347;-71
2023/04/04 01:59:50;;;;;;;7.55;2.38;;;;;;;-0.09;62.57;103201.75;7390056;19;19999;-70
2023/04/04 02:02:15;;;;;;;4.35;2.30;;;;;;;-0.26;62.81;103194.75;7389291;19;20005;-70
2023/04/04 02:04:42;;;;;;;4.25;2.00;;;;;;;-0.25;63.41;103196.47;7388123;19;20444;-70
2023/04/04 02:07:07;;;;;;;9.15;2.38;;;;;;;-0.27;63.02;103193.88;7389081;19;20040;-70
2023/04/04 02:09:33;;;;;;;7.13;2.22;;;;;;;-0.56;64.33;103196.38;7390088;19;19995;-70
2023/04/04 02:11:58;;;;;;;7.65;2.75;;;;;;;-0.57;64.06;103198.13;7388688;19;20032;-71
2023/04/04 02:14:24;;;;;;;8.55;2.40;;;;;;;-0.13;63.13;103199.13;7387843;19;20003;-71
2023/04/04 02:16:50;;;;;;;8.20;2.38;;;;;;;0.15;61.83;103193.06;7388894;19;20297;-71
2023/04/04 02:19:16;;;;;;;7.95;2.17;;;;;;;0.13;61.88;103186.09;7388981;19;20026;-70
2023/04/04 02:21:41;;;;;;;5.85;2.45;;;;;;;0.29;61.25;103179.13;7386401;19;19994;-70
2023/04/04 02:24:07;;;;;;;6.18;2.28;;;;;;;0.41;60.76;103187.88;7395901;19;20006;-70
2023/04/04 02:26:32;;;;;;;6.85;2.28;;;;;;;0.29;61.08;103189.59;7396099;19;20026;-70
2023/04/04 02:28:58;;;;;;;4.80;2.22;;;;;;;0.19;61.58;103191.34;7395426;19;19995;-69
2023/04/04 02:31:23;;;;;;;6.55;2.28;;;;;;;-0.05;62.44;103200.03;7395766;19;20002;-71
2023/04/04 02:33:49;;;;;;;5.60;2.22;;;;;;;-0.21;63.06;103193.88;7393809;19;20377;-68
2023/04/04 02:36:15;;;;;;;8.52;2.65;;;;;;;-0.06;62.73;103203.50;7395429;19;20019;-68
2023/04/04 02:38:40;;;;;;;6.50;2.38;;;;;;;0.17;61.51;103174.78;7393744;19;20001;-68
2023/04/04 02:41:06;;;;;;;6.53;2.47;;;;;;;0.10;61.90;103191.31;7396127;19;19995;-71
2023/04/04 02:43:32;;;;;;;6.10;2.28;;;;;;;0.19;61.40;103181.75;7394767;19;20719;-69
2023/04/04 02:45:57;;;;;;;7.57;2.70;;;;;;;0.22;61.49;103190.47;7395474;19;20062;-68
2023/04/04 02:48:24;;;;;;;6.55;2.22;;;;;;;0.34;60.97;103185.25;7396192;19;20003;-70
2023/04/04 02:50:50;;;;;;;6.90;2.60;;;;;;;0.09;61.65;103186.97;7393717;19;20348;-70
2023/04/04 02:53:16;;;;;;;6.80;2.28;;;;;;;-0.08;62.19;103194.78;7394239;19;20009;-70
2023/04/04 02:55:41;;;;;;;8.05;2.60;;;;;;;-0.05;62.53;103197.41;7394877;19;19997;-69
2023/04/04 02:58:07;;;;;;;6.43;2.58;;;;;;;0.07;62.10;103186.97;7393518;19;19991;-71
2023/04/04 03:00:33;;;;;;;8.52;2.40;;;;;;;0.06;61.84;103186.94;7395945;19;20018;-71
2023/04/04 03:02:58;;;;;;;7.57;2.78;;;;;;;-0.30;63.28;103183.41;7394740;19;20470;-72
2023/04/04 03:05:25;;;;;;;9.18;2.40;;;;;;;-0.16;62.89;103180.84;7391843;19;20003;-72
2023/04/04 03:07:55;;;;;;;7.63;2.47;;;;;;;-0.02;62.07;103183.47;7394641;19;20006;-72
2023/04/04 03:10:21;;;;;;;8.00;2.58;;;;;;;0.08;62.00;103175.66;7394720;19;20006;-69
2023/04/04 03:12:47;;;;;;;8.63;2.50;;;;;;;0.30;61.14;103171.31;7392160;19;20044;-69
2023/04/04 03:15:13;;;;;;;8.93;2.42;;;;;;;0.30;60.81;103166.06;7391230;19;20042;-68
2023/04/04 03:17:39;;;;;;;8.75;2.45;;;;;;;0.35;60.69;103153.84;7392927;19;20527;-69
2023/04/04 03:20:05;;;;;;;9.10;2.80;;;;;;;0.21;61.15;103155.59;7394107;19;19990;-69
2023/04/04 03:22:31;;;;;;;5.57;2.00;;;;;;;0.31;61.11;103153.88;7393692;19;20471;-69
2023/04/04 03:24:57;;;;;;;7.03;2.08;;;;;;;0.28;61.33;103156.47;7390716;19;20441;-69
2023/04/04 03:27:22;;;;;;;9.15;2.50;;;;;;;0.29;61.33;103150.38;7393291;19;20428;-70
2023/04/04 03:29:48;;;;;;;9.00;2.70;;;;;;;-0.16;62.45;103152.97;7393845;19;20020;-69
2023/04/04 03:32:13;;;;;;;8.57;2.60;;;;;;;-0.58;64.55;103154.63;7393517;19;20006;-70
2023/04/04 03:34:39;;;;;;;7.68;2.58;;;;;;;-0.84;65.56;103157.13;7387134;19;20594;-70
2023/04/04 03:37:04;;;;;;;6.30;2.20;;;;;;;-0.79;65.08;103157.16;7393641;19;20455;-70
2023/04/04 03:39:30;;;;;;;6.75;2.33;;;;;;;-0.46;64.05;103151.19;7394466;19;19999;-70
2023/04/04 03:41:56;;;;;;;10.13;2.95;;;;;;;-0.06;62.78;103143.41;7392598;19;20009;-70
2023/04/04 03:44:22;;;;;;;7.05;2.67;;;;;;;0.11;61.77;103143.44;7393313;19;20010;-70
2023/04/04 03:46:48;;;;;;;8.38;2.97;;;;;;;0.05;61.88;103139.06;7393029;19;20013;-69
2023/04/04 03:49:13;;;;;;;9.45;2.63;;;;;;;0.01;62.32;103146.91;7392735;19;20332;-71
2023/04/04 03:51:39;;;;;;;7.97;2.67;;;;;;;0.15;61.92;103150.41;7392903;19;20403;-71
2023/04/04 03:54:11;;;;;;;8.63;3.15;;;;;;;0.16;62.03;103139.91;7392633;19;20094;-70
2023/04/04 03:56:36;;;;;;;8.55;3.60;;;;;;;0.11;62.00;103151.25;7393073;19;20018;-70
2023/04/04 03:59:02;;;;;;;8.27;3.30;;;;;;;0.24;61.22;103147.75;7390291;19;20002;-69
2023/04/04 04:01:28;;;;;;;7.20;3.05;;;;;;;0.23;61.15;103147.78;7392837;19;20006;-70
2023/04/04 04:03:54;;;;;;;8.43;3.13;;;;;;;0.22;60.98;103148.66;7391428;19;20130;-71
2023/04/04 04:06:19;;;;;;;6.80;2.55;;;;;;;0.26;60.78;103140.81;7391967;19;19993;-69
2023/04/04 04:08:45;;;;;;;6.10;2.33;;;;;;;0.16;61.00;103137.31;7392962;19;20347;-69
2023/04/04 04:11:11;;;;;;;7.78;2.63;;;;;;;0.05;61.44;103136.44;7392625;19;19998;-69
2023/04/04 04:13:37;;;;;;;6.90;2.78;;;;;;;0.15;60.95;103135.56;7392356;19;20027;-69
2023/04/04 04:16:04;;;;;;;6.47;2.55;;;;;;;0.15;61.35;103137.31;7391461;19;20015;-72
2023/04/04 04:18:29;;;;;;;10.18;2.63;;;;;;;-0.03;61.94;103140.78;7391715;19;20046;-71
2023/04/04 04:20:58;;;;;;;5.45;2.30;;;;;;;-0.07;62.15;103139.91;7391449;19;20475;-70
2023/04/04 04:23:24;;;;;;;6.57;2.80;;;;;;;0.08;61.92;103152.13;7390753;19;20506;-71
2023/04/04 04:25:50;;;;;;;7.78;2.70;;;;;;;0.02;61.94;103144.28;7390013;19;20005;-70
2023/04/04 04:28:16;;;;;;;7.55;2.78;;;;;;;-0.00;62.12;103145.16;7391919;19;19995;-70
2023/04/04 04:30:43;;;;;;;8.68;2.70;;;;;;;0.07;62.02;103139.06;7391645;19;20058;-67
2023/04/04 04:33:08;;;;;;;10.70;2.88;;;;;;;0.09;62.21;103135.56;7391735;19;20005;-69
2023/04/04 04:35:43;;;;;;;6.85;2.72;;;;;;;-0.10;62.74;103132.06;7386907;19;20086;-67
2023/04/04 04:38:09;;;;;;;5.50;2.58;;;;;;;0.00;62.49;103138.19;7391411;19;20038;-67
2023/04/04 04:40:35;;;;;;;9.35;2.78;;;;;;;0.05;62.18;103138.19;7392050;19;20026;-69
2023/04/04 04:43:01;;;;;;;7.70;2.70;;;;;;;0.09;61.95;103137.31;7390929;19;20062;-69
2023/04/04 04:45:33;;;;;;;7.57;2.67;;;;;;;0.16;61.95;103139.06;7389137;19;20317;-69
2023/04/04 04:47:58;;;;;;;6.63;2.60;;;;;;;0.19;61.58;103146.91;7391749;19;20014;-69
2023/04/04 04:50:23;;;;;;;6.82;2.60;;;;;;;0.17;61.38;103143.41;7391780;19;20013;-69
2023/04/04 04:52:51;;;;;;;9.23;2.90;;;;;;;0.17;61.81;103146.88;7390977;19;19999;-70
2023/04/04 04:55:17;;;;;;;7.38;2.72;;;;;;;0.14;61.54;103140.81;7389544;19;20007;-71
2023/04/04 04:57:42;;;;;;;8.43;2.80;;;;;;;-0.20;62.50;103143.41;7391716;19;20003;-70
2023/04/04 05:00:08;;;;;;;8.50;2.90;;;;;;;-0.03;62.34;103146.03;7391193;19;20007;-71
2023/04/04 05:02:34;;;;;;;6.75;2.50;;;;;;;-0.17;63.05;103148.63;7391374;19;19994;-71
2023/04/04 05:05:00;;;;;;;8.70;3.13;;;;;;;-0.08;62.62;103150.38;7389244;19;19999;-70
2023/04/04 05:07:26;;;;;;;10.40;2.83;;;;;;;0.03;62.02;103143.41;7391405;19;20391;-71
2023/04/04 05:09:51;;;;;;;9.23;2.88;;;;;;;0.00;62.20;103159.09;7391736;19;20025;-70
2023/04/04 05:12:18;;;;;;;7.30;3.08;;;;;;;-0.02;62.24;103159.94;7390077;19;20359;-71
2023/04/04 05:14:43;;;;;;;8.05;3.25;;;;;;;-0.11;62.69;103164.31;7389132;19;20006;-72
2023/04/04 05:17:09;;;;;;;10.02;3.45;;;;;;;-0.02;62.65;103158.22;7390602;19;20032;-72
2023/04/04 05:19:35;;;;;;;10.02;3.95;;;;;;;0.03;62.54;103169.56;7390790;19;20058;-71
2023/04/04 05:22:00;;;;;;;8.15;3.60;;;;;;;0.05;62.40;103169.53;7390345;19;20487;-71
2023/04/04 05:24:26;;;;;;;13.57;3.90;;;;;;;0.04;62.27;103173.91;7389218;19;20083;-71
2023/04/04 05:26:51;;;;;;;8.32;3.75;;;;;;;0.11;62.29;103177.41;7390662;19;20006;-68
2023/04/04 05:29:17;;;;;;;12.23;4.20;;;;;;;0.23;61.73;103166.06;7390705;19;20017;-69
2023/04/04 05:31:42;;;;;;;10.82;4.40;;;;;;;-0.03;62.84;103174.75;7389567;19;20470;-70
2023/04/04 05:34:08;;;;;;;11.50;4.38;;;;;;;0.05;62.28;103170.41;7388314;19;20486;-69
2023/04/04 05:36:35;;;;;;;11.13;4.30;;;;;;;0.09;62.51;103172.16;7389092;19;20074;-71
2023/04/04 05:39:03;;;;;;;12.18;4.30;;;;;;;0.18;61.75;103164.34;7388413;19;20007;-67
2023/04/04 05:41:29;;;;;;;10.93;4.82;;;;;;;0.24;61.63;103170.44;7390374;19;20003;-70
2023/04/04 05:43:55;;;;;;;11.93;4.93;;;;;;;0.28;61.61;103174.78;7388769;19;20010;-69
2023/04/04 05:46:20;;;;;;;10.55;5.00;;;;;;;0.38;61.16;103172.16;7389424;19;20010;-69
2023/04/04 05:48:46;;;;;;;14.73;6.32;;;;;;;0.42;61.18;103176.53;7391385;19;19999;-70
2023/04/04 05:51:11;;;;;;;17.40;8.38;;;;;;;0.55;60.48;103174.75;7390235;19;20002;-62
2023/04/04 05:53:37;;;;;;;17.50;8.98;;;;;;;0.51;60.95;103170.41;7388241;19;19999;-63
2023/04/04 05:56:03;;;;;;;15.73;7.35;;;;;;;0.42;61.05;103173.03;7382194;19;20030;-62
2023/04/04 05:58:28;;;;;;;17.20;7.15;;;;;;;0.37;61.19;103174.78;7392999;19;20019;-62
2023/04/04 06:00:54;;;;;;;12.68;5.43;;;;;;;0.41;61.14;103164.31;7397382;19;20026;-63
2023/04/04 06:03:20;;;;;;;12.95;4.45;;;;;;;0.41;60.86;103173.91;7395225;19;20475;-62
2023/04/04 06:05:51;;;;;;;11.02;4.38;;;;;;;0.52;60.86;103169.56;7394749;19;20013;-62
2023/04/04 06:08:16;;;;;;;10.65;3.72;;;;;;;0.57;60.55;103170.41;7396165;19;20002;-62
2023/04/04 06:10:42;;;;;;;9.48;3.25;;;;;;;0.49;60.39;103174.78;7397029;19;20010;-62
2023/04/04 06:13:07;;;;;;;7.78;3.10;;;;;;;0.52;60.19;103182.63;7394658;19;20079;-62
2023/04/04 06:15:33;;;;;;;8.32;3.15;;;;;;;0.46;59.90;103173.91;7393468;19;20031;-61
2023/04/04 06:17:58;;;;;;;10.27;3.20;;;;;;;0.50;59.96;103170.41;7395388;19;20002;-62
2023/04/04 06:20:24;;;;;;;6.80;2.90;;;;;;;0.56;60.23;103175.66;7395798;19;20003;-63
2023/04/04 06:22:50;;;;;;;7.00;3.00;;;;;;;0.72;59.52;103186.97;7395809;19;19994;-62
2023/04/04 06:25:16;;;;;;;9.48;2.90;;;;;;;0.79;58.63;103179.09;7392653;19;20032;-63
2023/04/04 06:27:41;;;;;;;8.73;2.95;;;;;;;0.79;58.95;103173.88;7396674;19;19991;-64
2023/04/04 06:30:07;;;;;;;8.70;2.80;;;;;;;0.87;58.67;103179.09;7395310;19;20062;-62
2023/04/04 06:32:33;;;;;;;9.90;2.88;;;;;;;0.96;58.02;103184.28;7395072;19;19999;-62
2023/04/04 06:34:59;;;;;;;7.07;2.45;;;;;;;0.82;57.45;103186.03;7390188;19;20344;-62
2023/04/04 06:37:25;;;;;;;7.18;2.45;;;;;;;0.77;58.02;103177.34;7395105;19;19995;-61
2023/04/04 06:39:50;;;;;;;8.00;2.40;;;;;;;0.79;57.89;103186.06;7395397;19;19999;-61
2023/04/04 06:42:16;;;;;;;6.72;2.80;;;;;;;0.87;57.37;103179.94;7394630;19;19998;-61
2023/04/04 06:44:41;;;;;;;8.25;3.03;;;;;;;0.87;57.27;103184.31;7393874;19;20082;-63
2023/04/04 06:47:07;;;;;;;8.45;2.65;;;;;;;0.84;57.22;103179.94;7393528;19;20003;-63
2023/04/04 06:49:32;;;;;;;10.63;2.78;;;;;;;0.88;57.08;103179.06;7393414;19;20002;-64
2023/04/04 06:51:59;;;;;;;7.60;3.00;;;;;;;0.87;57.31;103179.09;7392661;19;20494;-63
2023/04/04 06:54:25;;;;;;;7.57;2.50;;;;;;;1.01;57.19;103179.03;7393639;19;20467;-62
2023/04/04 06:56:51;;;;;;;10.27;2.85;;;;;;;0.99;57.20;103171.19;7393200;19;19995;-63
2023/04/04 06:59:17;;;;;;;7.15;2.78;;;;;;;1.13;57.49;103171.16;7394592;19;20481;-63
2023/04/04 07:01:43;;;;;;;6.25;2.50;;;;;;;1.30;57.21;103179.78;7392961;19;20070;-63
2023/04/04 07:04:08;;;;;;;6.88;2.63;;;;;;;1.30;56.68;103179.78;7394486;19;20140;-62
2023/04/04 07:06:35;;;;;;;7.20;2.45;;;;;;;1.41;56.60;103180.63;7392645;19;20097;-61
2023/04/04 07:09:02;;;;;;;7.47;2.60;;;;;;;1.38;56.56;103183.25;7396102;19;20406;-62
2023/04/04 07:11:28;;;;;;;7.63;2.78;;;;;;;1.21;57.17;103181.59;7395045;19;20004;-62
2023/04/04 07:14:03;;;;;;;6.65;2.10;;;;;;;1.29;57.04;103172.81;7392301;19;20022;-62
2023/04/04 07:16:28;;;;;;;8.75;2.78;;;;;;;1.44;56.62;103169.28;7393524;19;20002;-62
2023/04/04 07:18:54;;;;;;;10.40;2.55;;;;;;;1.55;56.57;103172.72;7392918;19;20006;-62
2023/04/04 07:21:19;;;;;;;6.55;2.28;;;;;;;1.51;55.50;103170.97;7392724;19;20461;-63
2023/04/04 07:23:45;;;;;;;8.65;2.72;;;;;;;1.52;55.57;103164.00;7392755;19;20357;-63
2023/04/04 07:26:10;;;;;;;7.57;2.10;;;;;;;1.71;55.16;103164.75;7394265;19;20005;-63
2023/04/04 07:28:36;;;;;;;7.55;2.38;;;;;;;1.72;55.01;103163.88;7394942;19;20029;-63
2023/04/04 07:31:02;;;;;;;7.97;2.50;;;;;;;1.84;55.17;103167.28;7392756;19;20022;-63
2023/04/04 07:33:28;;;;;;;7.32;2.38;;;;;;;1.90;55.05;103169.00;7392799;19;19998;-69
2023/04/04 07:36:00;;;;;;;6.93;2.58;;;;;;;1.96;54.68;103171.56;7389801;19;20010;-69
2023/04/04 07:38:26;;;;;;;8.20;2.40;;;;;;;1.85;54.75;103166.41;7392576;19;20489;-71
2023/04/04 07:40:52;;;;;;;6.55;2.60;;;;;;;1.86;55.26;103167.28;7395131;19;20357;-70
2023/04/04 07:43:17;;;;;;;8.05;2.83;;;;;;;1.97;54.59;103167.19;7392680;19;20003;-70
2023/04/04 07:45:43;;;;;;;11.35;2.88;;;;;;;2.14;54.35;103167.94;7393813;19;20029;-70
2023/04/04 07:48:08;;;;;;;8.48;2.70;;;;;;;2.19;54.57;103165.28;7394333;19;20003;-71
2023/04/04 07:50:34;;;;;;;8.13;2.70;;;;;;;2.17;54.47;103159.19;7394213;19;19999;-70
2023/04/04 07:53:00;;;;;;;12.90;3.20;;;;;;;2.16;54.97;103166.19;7393052;19;20351;-70
2023/04/04 07:55:26;;;;;;;13.38;2.60;;;;;;;2.26;54.76;103164.34;7391512;19;20003;-70
2023/04/04 07:57:52;;;;;;;8.13;2.55;;;;;;;2.50;54.60;103164.16;7393206;19;20086;-70
2023/04/04 08:00:20;;;;;;;9.93;3.00;;;;;;;2.62;53.28;103161.41;7393510;19;20019;-69
2023/04/04 08:02:53;;;;;;;6.95;2.72;;;;;;;2.70;52.85;103161.31;7393759;19;20069;-71
2023/04/04 08:05:19;;;;;;;6.43;2.55;;;;;;;2.73;52.40;103150.78;7390667;19;20008;-70
2023/04/04 08:07:44;;;;;;;9.75;2.65;;;;;;;2.64;52.40;103153.50;7393389;19;20011;-70
2023/04/04 08:10:10;;;;;;;7.90;2.80;;;;;;;2.55;52.39;103153.59;7392843;19;19995;-70
2023/04/04 08:12:37;;;;;;;8.73;2.65;;;;;;;2.46;52.94;103151.91;7392900;19;20003;-69
2023/04/04 08:15:02;;;;;;;7.85;2.75;;;;;;;2.48;52.92;103151.91;7389399;19;20010;-70
2023/04/04 08:17:28;;;;;;;7.57;2.78;;;;;;;2.54;53.11;103155.34;7392248;19;20082;-70
2023/04/04 08:19:53;;;;;;;9.25;2.58;;;;;;;2.72;52.93;103156.03;7391165;19;20477;-70
2023/04/04 08:22:19;;;;;;;13.23;2.38;;;;;;;2.64;52.83;103150.88;7392179;19;20568;-70
2023/04/04 08:24:45;;;;;;;7.15;2.40;;;;;;;2.61;53.13;103157.00;7391404;19;20006;-70
2023/04/04 08:27:11;;;;;;;10.63;2.60;;;;;;;2.62;53.91;103155.28;7391920;19;20463;-69
2023/04/04 08:29:36;;;;;;;12.35;2.90;;;;;;;2.58;53.95;103150.94;7393875;19;20475;-70
2023/04/04 08:32:02;;;;;;;7.03;2.30;;;;;;;2.68;53.47;103146.47;7391683;19;19999;-71
2023/04/04 08:34:34;;;;;;;9.20;2.63;;;;;;;2.83;53.67;103141.91;7390621;19;20058;-71
2023/04/04 08:37:00;;;;;;;9.68;3.08;;;;;;;3.10;52.63;103150.34;7391915;19;20038;-70
2023/04/04 08:39:26;;;;;;;9.90;2.67;;;;;;;3.12;51.84;103138.97;7390740;19;19995;-71
2023/04/04 08:42:01;;;;;;;6.90;2.60;;;;;;;3.04;52.00;103140.81;7391323;19;20025;-71
2023/04/04 08:44:28;;;;;;;7.68;2.58;;;;;;;3.07;52.19;103137.25;7392022;19;20010;-69
2023/04/04 08:46:55;;;;;;;6.45;2.50;;;;;;;3.19;51.64;103138.84;7390697;19;20007;-70
2023/04/04 08:49:23;;;;;;;7.30;2.63;;;;;;;3.30;51.31;103131.72;7392041;19;20107;-70
2023/04/04 08:51:51;;;;;;;6.63;2.58;;;;;;;3.33;51.23;103131.69;7390854;19;20331;-70
2023/04/04 08:54:18;;;;;;;6.93;2.83;;;;;;;3.46;50.61;103135.88;7391002;19;20432;-71
2023/04/04 08:56:43;;;;;;;10.02;3.17;;;;;;;3.66;50.40;103130.34;7391334;19;20320;-70
2023/04/04 08:59:12;;;;;;;6.65;2.22;;;;;;;3.80;49.58;103124.84;7390075;19;20002;-71
2023/04/04 09:01:38;;;;;;;9.70;2.60;;;;;;;3.96;49.07;103126.41;7391495;19;20075;-71
2023/04/04 09:04:04;;;;;;;8.00;2.50;;;;;;;4.01;48.60;103124.56;7391000;19;20007;-71
2023/04/04 09:06:30;;;;;;;9.57;3.17;;;;;;;4.09;48.06;103117.41;7391704;19;20002;-70
2023/04/04 09:08:58;;;;;;;7.32;2.45;;;;;;;4.19;47.38;103119.91;7391701;19;19998;-70
2023/04/04 09:11:30;;;;;;;7.10;2.58;;;;;;;4.24;47.30;103120.69;7391715;19;20007;-70
2023/04/04 09:13:57;;;;;;;9.75;2.55;;;;;;;4.19;47.23;103110.25;7392704;19;20071;-71
2023/04/04 09:16:23;;;;;;;7.15;2.63;;;;;;;4.18;47.86;103113.78;7391358;19;20003;-71
2023/04/04 09:18:48;;;;;;;9.00;2.72;;;;;;;4.16;47.87;103115.56;7389476;19;20019;-71
2023/04/04 09:21:14;;;;;;;9.98;2.90;;;;;;;4.07;47.98;103106.06;7391588;19;20018;-70
2023/04/04 09:23:42;;;;;;;9.65;2.88;;;;;;;4.00;48.13;103108.81;7387897;19;19995;-71
2023/04/04 09:26:08;;;;;;;11.45;3.10;;;;;;;4.01;48.57;103105.28;7391120;19;19999;-69
2023/04/04 09:28:34;;;;;;;8.00;2.47;;;;;;;4.02;47.63;103096.50;7390399;19;20046;-70
2023/04/04 09:31:03;;;;;;;9.68;2.63;;;;;;;3.99;47.36;103101.81;7392656;19;20039;-69
2023/04/04 09:33:30;;;;;;;9.20;2.63;;;;;;;4.17;46.66;103100.63;7397551;19;19998;-69
2023/04/04 09:36:06;;;;;;;9.30;2.80;;;;;;;4.25;46.48;103106.63;7395330;19;20007;-70
2023/04/04 09:38:36;;;;;;;5.95;2.72;;;;;;;4.37;46.90;103102.91;7397278;19;20021;-71
2023/04/04 09:41:02;;;;;;;8.27;2.58;;;;;;;4.38;46.66;103102.91;7397854;19;19991;-71
2023/04/04 09:43:29;;;;;;;8.60;2.90;;;;;;;4.31;46.67;103099.50;7397240;19;20037;-70
2023/04/04 09:45:55;;;;;;;6.60;2.45;;;;;;;4.38;46.79;103097.63;7397449;19;20035;-70
2023/04/04 09:48:31;;;;;;;8.25;3.00;;;;;;;4.42;46.67;103095.81;7398132;19;19999;-70
2023/04/04 09:50:57;;;;;;;9.13;2.85;;;;;;;4.50;47.22;103097.41;7397658;19;19998;-70
2023/04/04 09:53:23;;;;;;;14.20;3.67;;;;;;;4.57;46.46;103091.13;7397721;19;19995;-69
2023/04/04 09:55:54;;;;;;;8.27;2.92;;;;;;;4.61;46.12;103091.06;7396929;19;20474;-70
2023/04/04 09:58:27;;;;;;;9.20;2.97;;;;;;;4.59;45.72;103085.81;7395300;19;20056;-71
2023/04/04 10:00:55;;;;;;;8.68;3.13;;;;;;;4.53;46.07;103091.22;7397424;19;20638;-72
2023/04/04 10:03:23;;;;;;;6.57;2.70;;;;;;;4.64;46.36;103086.63;7396932;19;19998;-71
2023/04/04 10:05:58;;;;;;;8.85;3.17;;;;;;;4.73;46.42;103096.94;7396991;19;19999;-71
2023/04/04 10:08:26;;;;;;;8.57;3.20;;;;;;;4.80;46.62;103100.34;7397739;19;20002;-72
2023/04/04 10:10:57;;;;;;;10.38;3.10;;;;;;;4.83;46.48;103102.91;7397517;19;19999;-71
2023/04/04 10:13:24;;;;;;;6.20;2.70;;;;;;;4.84;46.27;103099.38;7396704;19;19995;-70
2023/04/04 10:15:58;;;;;;;7.68;2.80;;;;;;;4.86;45.62;103094.06;7394446;19;20015;-70
2023/04/04 10:18:25;;;;;;;;;;;;;;;4.87;44.94;103093.16;7396074;19;19998;-70
2023/04/04 10:20:55;;;;;;;8.98;3.03;;;;;;;4.88;46.11;103098.41;7396916;19;19906;-71
2023/04/04 10:23:24;;;;;;;6.70;2.70;;;;;;;4.89;45.70;103088.75;7396536;19;19998;-70
2023/04/04 10:25:50;;;;;;;6.35;2.78;;;;;;;4.86;45.76;103086.16;7396835;19;19994;-69
2023/04/04 10:28:17;;;;;;;9.00;2.70;;;;;;;4.91;45.31;103093.09;7396192;19;19998;-70
2023/04/04 10:30:48;;;;;;;6.38;2.53;;;;;;;4.90;45.31;103087.84;7396834;19;20015;-70
2023/04/04 10:33:19;;;;;;;7.40;2.45;;;;;;;4.87;44.69;103082.63;7393659;19;19998;-69
2023/04/04 10:35:49;;;;;;;11.80;2.80;;;;;;;4.86;44.45;103075.63;7393917;19;20010;-66
2023/04/04 10:38:19;;;;;;;9.15;2.60;;;;;;;5.04;44.72;103076.09;7395171;19;20009;-66
2023/04/04 10:40:49;;;;;;;9.15;3.50;;;;;;;5.20;44.39;103066.09;7396208;19;20026;-66
2023/04/04 10:43:20;;;;;;;7.38;2.78;;;;;;;5.34;44.43;103065.81;7393212;19;20006;-66
2023/04/04 10:45:45;;;;;;;10.48;2.80;;;;;;;5.27;43.64;103061.56;7394983;19;20002;-67
2023/04/04 10:48:11;;;;;;;8.68;2.85;;;;;;;5.32;43.15;103062.31;7391968;19;20054;-66
2023/04/04 10:50:38;;;;;;;8.55;2.97;;;;;;;5.25;43.21;103064.25;7395324;19;20023;-66
2023/04/04 10:53:05;;;;;;;11.60;3.10;;;;;;;5.19;43.24;103059.09;7395832;19;20005;-66
2023/04/04 10:55:32;;;;;;;7.05;2.90;;;;;;;5.15;43.09;103062.72;7392596;19;20030;-67
2023/04/04 10:57:58;;;;;;;9.55;2.80;;;;;;;5.13;43.11;103050.47;7393914;19;20466;-67
2023/04/04 11:00:25;;;;;;;7.85;2.40;;;;;;;5.09;43.11;103044.38;7399466;19;20003;-66
2023/04/04 11:02:56;;;;;;;8.13;2.70;;;;;;;5.19;43.19;103039.78;7393011;19;20007;-66
2023/04/04 11:05:28;;;;;;;7.45;3.10;;;;;;;5.31;43.46;103034.25;7393098;19;20026;-66
2023/04/04 11:07:58;;;;;;;8.38;3.00;;;;;;;5.45;43.21;103044.47;7395664;19;20011;-66
2023/04/04 11:10:26;;;;;;;7.13;2.60;;;;;;;5.51;43.14;103037.25;7394534;19;20372;-67
2023/04/04 11:12:55;;;;;;;9.80;3.35;;;;;;;5.55;43.33;103040.69;7394689;19;20002;-66
2023/04/04 11:15:22;;;;;;;11.82;2.90;;;;;;;5.50;43.37;103032.91;7389505;19;20112;-66
2023/04/04 11:17:48;;;;;;;8.38;2.90;;;;;;;5.44;42.86;103034.81;7391404;19;20048;-67
2023/04/04 11:20:15;;;;;;;6.95;2.78;;;;;;;5.40;42.96;103036.66;7394491;19;20040;-68
2023/04/04 11:22:41;;;;;;;8.85;2.95;;;;;;;5.42;43.34;103026.94;7391301;19;20002;-68
2023/04/04 11:25:31;;;;;;;8.68;2.90;;;;;;;5.62;43.36;103023.81;7392852;19;19999;-68
2023/04/04 11:27:58;;;;;;;10.10;3.00;;;;;;;5.63;42.75;103028.22;7393948;19;19999;-68
2023/04/04 11:30:25;;;;;;;7.32;2.92;;;;;;;5.63;42.72;103027.31;7387478;19;20650;-68